createdAt,value
2019-03-08T00:00:10.162Z,8.20
2019-03-08T00:02:44.814Z,8.20
2019-03-08T00:05:15.701Z,8.20
2019-03-08T00:07:47.232Z,8.20
2019-03-08T00:10:18.329Z,8.40
2019-03-08T00:12:49.570Z,8.30
2019-03-08T00:15:20.823Z,8.20
2019-03-08T00:17:52.460Z,8.10
2019-03-08T00:20:24.377Z,8.10
2019-03-08T00:22:55.676Z,7.90
2019-03-08T00:25:26.403Z,7.90
2019-03-08T00:27:57.767Z,7.80
2019-03-08T00:30:29.453Z,7.60
2019-03-08T00:33:00.812Z,7.50
2019-03-08T00:35:33.808Z,7.60
2019-03-08T00:38:24.300Z,7.50
2019-03-08T00:40:56.464Z,7.50
2019-03-08T00:43:28.298Z,7.30
2019-03-08T00:46:00.258Z,7.30
2019-03-08T00:48:32.689Z,7.10
2019-03-08T00:51:13.805Z,7.10
2019-03-08T00:53:45.117Z,6.90
2019-03-08T00:56:19.063Z,6.90
2019-03-08T00:59:04.716Z,6.90
2019-03-08T01:01:56.979Z,6.90
2019-03-08T01:04:29.218Z,6.70
2019-03-08T01:07:03.663Z,6.60
2019-03-08T01:09:36.271Z,6.60
2019-03-08T01:12:14.075Z,6.60
2019-03-08T01:14:45.047Z,6.60
2019-03-08T01:17:16.072Z,6.60
2019-03-08T01:19:48.662Z,6.70
2019-03-08T01:22:22.606Z,6.60
2019-03-08T01:24:54.584Z,6.40
2019-03-08T01:27:27.982Z,6.30
2019-03-08T01:30:02.791Z,6.10
2019-03-08T01:32:35.615Z,5.80
2019-03-08T01:35:08.168Z,5.60
2019-03-08T01:37:41.191Z,5.30
2019-03-08T01:40:13.645Z,5.10
2019-03-08T01:42:53.737Z,4.80
2019-03-08T01:45:26.780Z,4.60
2019-03-08T01:47:59.294Z,4.60
2019-03-08T01:50:33.062Z,4.50
2019-03-08T01:53:05.621Z,4.50
2019-03-08T01:55:37.106Z,4.50
2019-03-08T01:58:18.295Z,4.30
2019-03-08T02:00:53.431Z,4.20
2019-03-08T03:01:53.872Z,2.50
2019-03-08T03:04:24.658Z,2.40
2019-03-08T03:07:01.373Z,2.30
2019-03-08T03:09:33.919Z,2.30
2019-03-08T03:12:05.337Z,2.30
2019-03-08T03:14:36.787Z,2.40
2019-03-08T03:17:11.019Z,2.40
2019-03-08T03:19:43.527Z,2.60
2019-03-08T03:22:15.369Z,2.50
2019-03-08T03:24:48.376Z,2.50
2019-03-08T03:27:44.316Z,2.60
2019-03-08T03:30:24.437Z,2.70
2019-03-08T03:32:55.657Z,2.70
2019-03-08T03:35:26.837Z,2.70
2019-03-08T03:37:58.818Z,2.80
2019-03-08T03:40:30.357Z,2.80
2019-03-08T03:43:01.660Z,2.80
2019-03-08T03:45:33.047Z,2.80
2019-03-08T03:48:04.438Z,2.80
2019-03-08T03:50:35.138Z,2.80
2019-03-08T03:53:06.504Z,2.80
2019-03-08T03:55:37.200Z,3.10
2019-03-08T03:58:08.147Z,3.10
2019-03-08T04:00:41.150Z,3.20
2019-03-08T04:03:18.391Z,3.60
2019-03-08T04:05:50.062Z,4.90
2019-03-08T04:08:21.115Z,5.80
2019-03-08T04:10:52.138Z,6.10
2019-03-08T04:13:23.492Z,6.50
2019-03-08T04:15:54.871Z,6.80
2019-03-08T04:18:25.609Z,7.00
2019-03-08T04:20:56.838Z,7.10
2019-03-08T04:23:35.126Z,7.10
2019-03-08T04:26:07.756Z,7.10
2019-03-08T04:28:40.513Z,7.10
2019-03-08T04:31:15.014Z,7.10
2019-03-08T04:33:46.330Z,7.10
2019-03-08T04:36:18.380Z,7.00
2019-03-08T04:38:53.686Z,7.00
2019-03-08T04:41:25.020Z,6.90
2019-03-08T04:43:56.507Z,6.90
2019-03-08T04:46:27.941Z,6.90
2019-03-08T04:48:58.985Z,6.90
2019-03-08T04:51:29.846Z,6.90
2019-03-08T04:54:01.370Z,6.90
2019-03-08T04:56:32.423Z,6.90
2019-03-08T04:59:02.840Z,6.80
2019-03-08T05:01:34.145Z,6.90
2019-03-08T05:04:04.758Z,6.80
2019-03-08T05:06:35.758Z,6.80
2019-03-08T05:09:08.118Z,6.80
2019-03-08T05:11:39.555Z,6.70
2019-03-08T05:14:10.603Z,6.70
2019-03-08T05:16:41.697Z,6.70
2019-03-08T05:19:12.300Z,6.70
2019-03-08T05:21:43.673Z,6.70
2019-03-08T05:24:14.683Z,6.70
2019-03-08T05:26:45.614Z,6.70
2019-03-08T05:29:17.029Z,6.60
2019-03-08T05:31:48.518Z,6.60
2019-03-08T05:34:22.855Z,6.50
2019-03-08T05:36:54.203Z,6.60
2019-03-08T05:39:25.230Z,6.50
2019-03-08T05:42:06.613Z,6.60
2019-03-08T05:44:38.059Z,6.60
2019-03-08T05:47:08.709Z,6.70
2019-03-08T05:49:41.286Z,6.80
2019-03-08T05:52:12.613Z,6.80
2019-03-08T05:55:02.368Z,6.80
2019-03-08T05:57:33.694Z,6.70
2019-03-08T06:00:04.315Z,6.70
2019-03-08T06:02:35.048Z,6.70
2019-03-08T06:05:06.771Z,6.70
2019-03-08T06:07:38.149Z,6.70
2019-03-08T06:10:35.721Z,6.70
2019-03-08T06:13:07.725Z,6.70
2019-03-08T06:15:39.247Z,6.80
2019-03-08T06:18:10.921Z,6.80
2019-03-08T06:20:41.232Z,6.70
2019-03-08T06:23:12.293Z,6.80
2019-03-08T06:25:43.316Z,6.80
2019-03-08T06:28:14.390Z,6.80
2019-03-08T06:31:27.765Z,6.80
2019-03-08T06:34:00.583Z,6.80
2019-03-08T06:36:32.000Z,6.80
2019-03-08T06:39:04.747Z,6.80
2019-03-08T06:41:36.378Z,6.90
2019-03-08T06:44:07.338Z,7.00
2019-03-08T06:46:38.777Z,7.00
2019-03-08T06:49:10.181Z,7.10
2019-03-08T06:51:42.139Z,7.20
2019-03-08T06:54:12.774Z,7.20
2019-03-08T06:56:43.275Z,7.20
2019-03-08T06:59:24.656Z,7.30
2019-03-08T07:02:08.102Z,7.30
2019-03-08T07:04:39.587Z,7.40
2019-03-08T07:07:11.069Z,7.50
2019-03-08T07:09:50.736Z,7.50
2019-03-08T07:12:30.277Z,7.50
2019-03-08T07:15:23.519Z,7.50
2019-03-08T07:17:54.050Z,7.40
2019-03-08T07:20:44.571Z,7.50
2019-03-08T07:23:31.041Z,7.50
2019-03-08T07:26:25.029Z,7.50
2019-03-08T07:30:19.995Z,7.60
2019-03-08T07:33:21.607Z,7.60
2019-03-08T07:36:03.387Z,7.60
2019-03-08T07:38:50.994Z,7.60
2019-03-08T07:41:49.103Z,7.70
2019-03-08T07:44:50.624Z,7.80
2019-03-08T07:47:41.217Z,7.70
2019-03-08T07:50:35.081Z,7.70
2019-03-08T07:53:14.057Z,7.80
2019-03-08T07:56:07.967Z,7.70
2019-03-08T07:59:04.141Z,7.70
2019-03-08T08:01:57.072Z,7.70
2019-03-08T08:04:49.730Z,7.60
2019-03-08T08:07:42.438Z,7.70
2019-03-08T08:10:22.786Z,7.80
2019-03-08T08:13:31.374Z,7.90
2019-03-08T08:16:08.058Z,8.00
2019-03-08T08:18:59.283Z,8.00
2019-03-08T08:21:39.331Z,8.00
2019-03-08T08:24:37.538Z,8.10
2019-03-08T08:27:20.736Z,8.20
2019-03-08T08:30:06.626Z,8.30
2019-03-08T08:32:59.982Z,8.50
2019-03-08T08:35:47.020Z,8.60
2019-03-08T08:38:25.118Z,8.80
2019-03-08T08:41:29.135Z,8.70
2019-03-08T08:44:18.470Z,8.70
2019-03-08T08:47:07.993Z,8.70
2019-03-08T08:50:00.022Z,8.70
2019-03-08T08:53:08.087Z,8.80
2019-03-08T08:55:49.187Z,8.90
2019-03-08T08:58:45.419Z,8.90
2019-03-08T09:01:33.809Z,8.90
2019-03-08T09:04:12.385Z,9.10
2019-03-08T09:07:05.242Z,9.10
2019-03-08T09:10:08.019Z,9.00
2019-03-08T09:13:03.439Z,9.00
2019-03-08T09:15:53.011Z,9.00
2019-03-08T09:18:42.083Z,8.90
2019-03-08T09:21:25.171Z,8.80
2019-03-08T09:24:04.938Z,8.80
2019-03-08T09:26:53.597Z,8.90
2019-03-08T09:29:41.834Z,8.80
2019-03-08T09:32:59.639Z,8.90
2019-03-08T09:35:52.732Z,8.80
2019-03-08T09:38:33.681Z,8.90
2019-03-08T09:42:17.921Z,8.90
2019-03-08T09:45:25.736Z,9.00
2019-03-08T09:48:14.527Z,9.20
2019-03-08T09:50:58.199Z,9.50
2019-03-08T09:53:43.757Z,9.50
2019-03-08T09:56:22.668Z,9.40
2019-03-08T09:59:01.200Z,9.40
2019-03-08T10:01:55.122Z,9.50
2019-03-08T10:04:44.957Z,9.50
2019-03-08T10:08:02.689Z,9.60
2019-03-08T10:10:53.090Z,9.80
2019-03-08T10:13:46.048Z,9.70
2019-03-08T10:16:31.196Z,9.70
2019-03-08T10:19:20.059Z,9.50
2019-03-08T10:22:13.527Z,9.60
2019-03-08T10:25:03.710Z,9.60
2019-03-08T10:27:54.412Z,9.70
2019-03-08T10:30:44.819Z,9.70
2019-03-08T10:33:47.518Z,10.10
2019-03-08T10:36:40.549Z,10.40
2019-03-08T10:39:22.348Z,10.70
2019-03-08T10:42:06.979Z,11.00
2019-03-08T10:44:56.897Z,10.40
2019-03-08T10:47:56.238Z,10.40
2019-03-08T10:50:34.731Z,10.20
2019-03-08T10:53:36.336Z,10.70
2019-03-08T10:56:28.208Z,10.50
2019-03-08T10:59:12.786Z,10.30
2019-03-08T11:01:52.324Z,10.80
2019-03-08T11:04:38.505Z,10.90
2019-03-08T11:07:28.262Z,11.50
2019-03-08T11:10:24.059Z,11.60
2019-03-08T11:13:06.290Z,11.40
2019-03-08T11:16:02.648Z,11.60
2019-03-08T11:19:08.763Z,11.10
2019-03-08T11:22:04.792Z,11.00
2019-03-08T11:25:07.520Z,11.10
2019-03-08T11:27:58.158Z,11.10
2019-03-08T11:30:57.657Z,10.90
2019-03-08T11:33:36.020Z,10.60
2019-03-08T11:36:32.663Z,10.80
2019-03-08T11:39:21.135Z,10.40
2019-03-08T11:42:10.995Z,10.50
2019-03-08T11:45:01.288Z,10.70
2019-03-08T11:47:54.308Z,10.40
2019-03-08T11:50:44.258Z,10.30
2019-03-08T11:53:34.601Z,10.50
2019-03-08T11:56:25.121Z,10.10
2019-03-08T11:59:08.075Z,10.30
2019-03-08T12:01:47.943Z,10.50
2019-03-08T12:04:40.804Z,10.80
2019-03-08T12:07:26.234Z,10.80
2019-03-08T12:10:38.035Z,10.80
2019-03-08T12:13:32.209Z,10.70
2019-03-08T12:16:24.148Z,10.90
2019-03-08T12:19:14.546Z,11.10
2019-03-08T12:22:14.341Z,10.70
2019-03-08T12:25:04.113Z,11.00
2019-03-08T12:28:18.814Z,10.80
2019-03-08T12:31:18.609Z,10.40
2019-03-08T12:34:28.420Z,10.60
2019-03-08T12:37:10.819Z,10.20
2019-03-08T12:40:04.233Z,10.00
2019-03-08T12:43:07.658Z,10.10
2019-03-08T12:46:10.424Z,10.20
2019-03-08T12:48:59.045Z,10.20
2019-03-08T12:51:52.001Z,9.90
2019-03-08T12:54:45.518Z,10.00
2019-03-08T12:58:14.884Z,10.00
2019-03-08T13:01:33.847Z,9.90
2019-03-08T13:04:53.764Z,10.10
2019-03-08T13:08:01.800Z,10.60
2019-03-08T13:10:33.127Z,10.50
2019-03-08T13:13:07.359Z,10.70
2019-03-08T13:15:38.590Z,10.90
2019-03-08T13:18:09.911Z,10.90
2019-03-08T13:20:45.090Z,10.80
2019-03-08T13:23:16.610Z,11.30
2019-03-08T13:25:47.876Z,11.60
2019-03-08T13:28:21.395Z,12.20
2019-03-08T13:30:52.096Z,12.50
2019-03-08T13:33:23.662Z,13.20
2019-03-08T13:35:54.997Z,12.90
2019-03-08T13:38:26.555Z,12.50
2019-03-08T13:40:57.782Z,13.10
2019-03-08T13:43:29.186Z,13.90
2019-03-08T13:46:28.654Z,14.00
2019-03-08T13:49:00.159Z,14.30
2019-03-08T13:51:31.668Z,14.70
2019-03-08T13:54:22.254Z,15.20
2019-03-08T13:56:59.494Z,14.70
2019-03-08T14:00:06.345Z,15.00
2019-03-08T14:02:50.107Z,14.90
2019-03-08T14:05:21.487Z,14.80
2019-03-08T14:07:52.631Z,15.30
2019-03-08T14:10:23.331Z,15.20
2019-03-08T14:12:54.609Z,14.70
2019-03-08T14:15:28.921Z,14.30
2019-03-08T14:18:01.087Z,14.30
2019-03-08T14:20:43.773Z,13.40
2019-03-08T14:23:25.473Z,13.60
2019-03-08T14:26:01.519Z,14.10
2019-03-08T14:28:32.618Z,14.20
2019-03-08T14:31:12.471Z,14.20
2019-03-08T14:33:43.496Z,14.30
2019-03-08T14:36:14.687Z,13.90
2019-03-08T14:38:45.737Z,13.90
2019-03-08T14:41:38.930Z,14.30
2019-03-08T14:44:17.097Z,14.30
2019-03-08T14:47:10.084Z,13.80
2019-03-08T14:49:40.808Z,13.80
2019-03-08T14:52:12.139Z,13.70
2019-03-08T14:54:46.443Z,13.80
2019-03-08T14:57:31.343Z,13.90
2019-03-08T15:00:03.613Z,13.60
2019-03-08T15:02:35.056Z,14.10
2019-03-08T15:05:11.258Z,14.40
2019-03-08T15:07:41.044Z,14.60
2019-03-08T15:10:15.783Z,14.70
2019-03-08T15:12:49.055Z,14.80
2019-03-08T15:15:23.449Z,14.90
2019-03-08T15:17:58.422Z,15.00
2019-03-08T15:20:29.435Z,15.00
2019-03-08T15:23:03.327Z,15.20
2019-03-08T15:25:34.718Z,15.60
2019-03-08T15:28:06.028Z,16.30
2019-03-08T15:30:40.278Z,15.80
2019-03-08T15:33:12.174Z,16.70
2019-03-08T15:35:43.829Z,16.90
2019-03-08T15:38:14.962Z,17.00
2019-03-08T15:40:45.957Z,17.70
2019-03-08T15:43:21.619Z,17.60
2019-03-08T15:45:52.654Z,18.10
2019-03-08T15:48:24.328Z,17.90
2019-03-08T15:51:12.661Z,17.00
2019-03-08T15:53:44.741Z,17.00
2019-03-08T15:56:16.602Z,17.30
2019-03-08T15:58:48.224Z,17.20
2019-03-08T16:01:20.376Z,17.10
2019-03-08T16:04:26.668Z,16.60
2019-03-08T16:06:57.689Z,16.30
2019-03-08T16:09:28.015Z,16.20
2019-03-08T16:11:59.041Z,15.90
2019-03-08T16:14:44.494Z,15.50
2019-03-08T16:17:18.152Z,15.20
2019-03-08T16:19:51.947Z,15.10
2019-03-08T16:22:43.016Z,15.00
2019-03-08T16:25:14.558Z,15.30
2019-03-08T16:27:45.910Z,15.50
2019-03-08T16:30:28.925Z,15.10
2019-03-08T16:33:19.989Z,14.30
2019-03-08T16:36:17.960Z,13.40
2019-03-08T16:39:00.992Z,13.30
2019-03-08T16:42:01.298Z,13.20
2019-03-08T16:44:48.745Z,11.60
2019-03-08T16:47:35.937Z,11.10
2019-03-08T16:50:22.180Z,10.20
2019-03-08T16:53:10.707Z,9.80
2019-03-08T16:56:09.929Z,9.40
2019-03-08T16:59:11.968Z,9.20
2019-03-08T17:01:52.474Z,9.00
2019-03-08T17:04:37.594Z,8.70
2019-03-08T17:07:21.915Z,8.40
2019-03-08T17:10:17.072Z,8.30
2019-03-08T17:13:19.925Z,8.20
2019-03-08T17:16:11.049Z,8.10
2019-03-08T17:18:59.598Z,8.10
2019-03-08T17:21:49.141Z,8.10
2019-03-08T17:24:54.421Z,8.10
2019-03-08T17:27:52.342Z,8.10
2019-03-08T17:30:41.552Z,8.00
2019-03-08T17:33:32.609Z,7.90
2019-03-08T17:36:09.583Z,7.80
2019-03-08T17:39:07.535Z,7.80
2019-03-08T17:41:53.313Z,7.70
2019-03-08T17:44:30.236Z,7.70
2019-03-08T17:47:20.078Z,7.60
2019-03-08T17:50:19.587Z,7.50
2019-03-08T17:53:12.643Z,7.40
2019-03-08T17:55:57.742Z,7.30
2019-03-08T17:58:59.572Z,7.20
2019-03-08T18:01:49.438Z,7.10
2019-03-08T18:04:39.939Z,7.00
2019-03-08T18:07:32.622Z,6.80
2019-03-08T18:10:11.730Z,6.70
2019-03-08T18:12:58.806Z,6.60
2019-03-08T18:16:13.003Z,6.50
2019-03-08T18:18:58.992Z,6.50
2019-03-08T18:21:37.424Z,6.40
2019-03-08T18:24:25.706Z,6.40
2019-03-08T18:27:14.335Z,6.30
2019-03-08T18:29:58.526Z,6.30
2019-03-08T18:32:47.922Z,6.40
2019-03-08T18:35:36.793Z,6.30
2019-03-08T18:38:26.544Z,6.40
2019-03-08T18:41:15.149Z,6.50
2019-03-08T18:44:18.387Z,6.50
2019-03-08T18:47:11.408Z,6.60
2019-03-08T18:50:06.576Z,6.50
2019-03-08T18:53:02.876Z,6.60
2019-03-08T18:56:15.637Z,6.60
2019-03-08T18:59:05.545Z,6.50
2019-03-08T19:02:13.637Z,6.40
2019-03-08T19:05:04.471Z,6.30
2019-03-08T19:07:55.257Z,6.30
2019-03-08T19:10:49.974Z,6.20
2019-03-08T19:13:33.265Z,6.20
2019-03-08T19:16:18.344Z,6.30
2019-03-08T19:19:10.967Z,6.40
2019-03-08T19:22:06.787Z,6.50
2019-03-08T19:24:44.173Z,6.60
2019-03-08T19:27:39.198Z,6.80
2019-03-08T19:30:50.028Z,6.80
2019-03-08T19:33:39.331Z,6.70
2019-03-08T19:36:29.112Z,6.70
2019-03-08T19:39:25.510Z,6.60
2019-03-08T19:42:21.868Z,6.60
2019-03-08T19:45:00.544Z,6.60
2019-03-08T19:47:50.775Z,6.50
2019-03-08T19:50:46.717Z,6.50
2019-03-08T19:53:45.957Z,6.40
2019-03-08T19:56:25.798Z,6.30
2019-03-08T19:59:27.160Z,6.30
2019-03-08T20:02:13.413Z,6.20
2019-03-08T20:05:02.775Z,6.10
2019-03-08T20:08:08.644Z,6.10
2019-03-08T20:10:56.763Z,6.00
2019-03-08T20:13:45.279Z,6.00
2019-03-08T20:16:37.688Z,6.00
2019-03-08T20:19:44.167Z,6.00
2019-03-08T20:22:31.545Z,6.00
2019-03-08T20:25:13.675Z,6.10
2019-03-08T20:28:03.448Z,6.10
2019-03-08T20:31:04.622Z,6.10
2019-03-08T20:33:52.753Z,6.10
2019-03-08T20:36:48.400Z,6.20
2019-03-08T20:39:52.552Z,6.30
2019-03-08T20:42:42.555Z,6.30
2019-03-08T20:45:32.126Z,6.30
2019-03-08T20:48:03.875Z,6.40
2019-03-08T20:50:34.536Z,6.50
2019-03-08T20:53:06.676Z,6.50
2019-03-08T20:55:38.292Z,6.60
2019-03-08T20:58:09.276Z,6.60
2019-03-08T21:00:41.446Z,6.70
2019-03-08T21:03:13.520Z,6.70
2019-03-08T21:05:44.591Z,6.70
2019-03-08T21:08:16.196Z,6.70
2019-03-08T21:10:47.660Z,6.70
2019-03-08T21:13:19.015Z,6.90
2019-03-08T21:15:49.624Z,6.90
2019-03-08T21:18:29.985Z,6.80
2019-03-08T21:21:02.346Z,6.80
2019-03-08T21:23:43.295Z,6.80
2019-03-08T21:26:14.744Z,6.70
2019-03-08T21:29:02.395Z,6.60
2019-03-08T21:31:33.702Z,6.50
2019-03-08T21:34:10.381Z,6.50
2019-03-08T21:36:43.508Z,6.50
2019-03-08T21:39:18.858Z,6.60
2019-03-08T21:41:52.690Z,6.60
2019-03-08T21:44:23.371Z,6.60
2019-03-08T21:46:57.833Z,6.60
2019-03-08T21:49:32.207Z,6.60
2019-03-08T21:52:09.217Z,6.60
2019-03-08T21:54:44.142Z,7.00
2019-03-08T21:57:15.227Z,7.00
2019-03-08T21:59:48.665Z,7.00
2019-03-08T22:02:20.407Z,7.20
2019-03-08T22:04:54.659Z,7.20
2019-03-08T22:07:25.893Z,7.20
2019-03-08T22:10:12.763Z,7.00
2019-03-08T22:12:48.761Z,6.90
2019-03-08T22:15:22.504Z,6.90
2019-03-08T22:18:01.525Z,6.80
2019-03-08T22:20:33.774Z,6.80
2019-03-08T22:23:06.831Z,7.10
2019-03-08T22:25:42.661Z,7.20
2019-03-08T22:28:14.046Z,7.20
2019-03-08T22:30:56.800Z,7.10
2019-03-08T22:33:35.134Z,7.00
2019-03-08T22:36:10.989Z,7.00
2019-03-08T22:38:41.718Z,6.90
2019-03-08T22:41:12.710Z,7.00
2019-03-08T22:43:44.529Z,7.00
2019-03-08T22:46:17.404Z,6.90
2019-03-08T22:48:55.021Z,6.80
2019-03-08T22:51:32.759Z,6.70
2019-03-08T22:54:07.188Z,6.60
2019-03-08T22:56:40.268Z,6.40
2019-03-08T22:59:11.425Z,6.40
2019-03-08T23:01:50.416Z,6.20
2019-03-08T23:04:22.036Z,6.10
2019-03-08T23:06:54.195Z,6.00
2019-03-08T23:09:30.338Z,6.10
2019-03-08T23:12:01.015Z,6.00
2019-03-08T23:14:34.239Z,5.90
2019-03-08T23:17:08.043Z,5.80
2019-03-08T23:19:40.840Z,5.80
2019-03-08T23:22:16.121Z,5.70
2019-03-08T23:24:50.100Z,5.70
2019-03-08T23:27:32.792Z,5.70
2019-03-08T23:30:19.994Z,5.90
2019-03-08T23:32:54.785Z,5.80
2019-03-08T23:35:27.130Z,5.80
2019-03-08T23:38:13.872Z,5.80
2019-03-08T23:40:46.212Z,5.80
2019-03-08T23:43:18.143Z,5.70
2019-03-08T23:45:50.035Z,5.60
2019-03-08T23:48:21.534Z,5.70
2019-03-08T23:50:57.246Z,5.70
2019-03-08T23:53:31.115Z,5.70
2019-03-08T23:56:02.768Z,5.80
2019-03-08T23:58:34.265Z,5.90
